Time;durP1;ratioP1;P1;durP2;ratioP2;P2;SDS_P1;SDS_P2;PMS_P1;PMS_P2;Temp;Humidity;BMP_temperature;BMP_pressure;BME280_temperature;BME280_humidity;BME280_pressure;Samples;Min_cycle;Max_cycle;Signal;HPM_P1;HPM_P2
2022/08/21 00:01:53;;;;;;;12.73;4.47;;;27.80;67.00;;;;;;5016958;28;20192;-75
2022/08/21 00:04:23;;;;;;;8.38;4.40;;;27.80;67.00;;;;;;5015258;28;20283;-76
2022/08/21 00:06:58;;;;;;;6.75;4.32;;;27.80;67.20;;;;;;5013532;28;20273;-75
2022/08/21 00:09:26;;;;;;;5.85;4.22;;;27.80;67.20;;;;;;5015240;28;20630;-76
2022/08/21 00:11:55;;;;;;;6.38;4.40;;;27.70;67.10;;;;;;5018386;28;20206;-75
2022/08/21 00:14:23;;;;;;;10.18;4.47;;;27.70;67.20;;;;;;5019380;28;20282;-75
2022/08/21 00:16:52;;;;;;;6.80;4.20;;;27.70;67.20;;;;;;5010293;28;20890;-76
2022/08/21 00:19:26;;;;;;;6.35;4.40;;;27.70;67.40;;;;;;5015190;28;20188;-76
2022/08/21 00:21:55;;;;;;;8.18;4.50;;;27.70;67.60;;;;;;5016347;28;20226;-77
2022/08/21 00:24:24;;;;;;;6.75;4.65;;;27.60;67.70;;;;;;5020332;28;20753;-77
2022/08/21 00:26:53;;;;;;;6.50;4.50;;;27.60;67.80;;;;;;5015051;28;20313;-76
2022/08/21 00:29:22;;;;;;;6.70;4.15;;;27.60;67.80;;;;;;5019760;28;20202;-75
2022/08/21 00:31:50;;;;;;;8.52;4.13;;;27.60;68.00;;;;;;5017419;28;20809;-75
2022/08/21 00:34:19;;;;;;;7.60;5.07;;;27.50;67.90;;;;;;5017231;28;20211;-75
2022/08/21 00:36:49;;;;;;;8.40;4.88;;;27.50;68.10;;;;;;5014245;28;20685;-76
2022/08/21 00:39:17;;;;;;;8.73;5.07;;;27.50;68.20;;;;;;5013484;28;20629;-75
2022/08/21 00:41:46;;;;;;;9.88;5.32;;;27.50;68.30;;;;;;5014070;28;20192;-75
2022/08/21 00:44:15;;;;;;;10.55;5.13;;;27.40;68.70;;;;;;5015661;28;20602;-75
2022/08/21 00:46:44;;;;;;;7.68;4.20;;;27.40;68.70;;;;;;5018890;28;20196;-75
2022/08/21 00:49:13;;;;;;;7.22;4.78;;;27.30;68.70;;;;;;5019101;28;20794;-75
2022/08/21 00:51:48;;;;;;;7.78;4.60;;;27.30;68.80;;;;;;5016676;28;20204;-75
2022/08/21 00:54:19;;;;;;;8.57;4.72;;;27.30;69.10;;;;;;5018115;28;20223;-75
2022/08/21 00:56:53;;;;;;;7.97;4.88;;;27.30;69.20;;;;;;5016453;28;20234;-79
2022/08/21 00:59:24;;;;;;;9.13;4.32;;;27.30;69.20;;;;;;5015263;28;20225;-75
2022/08/21 01:01:52;;;;;;;11.15;4.90;;;27.20;70.10;;;;;;5017190;28;20200;-75
2022/08/21 01:04:22;;;;;;;7.93;4.75;;;27.20;69.40;;;;;;5012479;28;20279;-76
2022/08/21 01:06:51;;;;;;;6.88;4.13;;;27.20;69.70;;;;;;5012475;28;20239;-76
2022/08/21 01:09:21;;;;;;;10.55;4.70;;;27.20;69.70;;;;;;5011465;28;20250;-75
2022/08/21 01:11:50;;;;;;;8.00;4.38;;;27.10;69.70;;;;;;5014868;28;20218;-75
2022/08/21 01:14:19;;;;;;;8.18;5.05;;;27.10;69.80;;;;;;5011150;28;20461;-75
2022/08/21 01:16:52;;;;;;;7.47;4.88;;;27.10;69.90;;;;;;5013815;28;20231;-75
2022/08/21 01:19:22;;;;;;;10.02;4.93;;;27.10;70.10;;;;;;5019059;28;20187;-75
2022/08/21 01:21:53;;;;;;;10.38;5.03;;;27.00;70.30;;;;;;5014259;28;20187;-75
2022/08/21 01:24:22;;;;;;;10.18;5.57;;;27.00;70.50;;;;;;5018566;28;20346;-76
2022/08/21 01:26:52;;;;;;;10.13;5.32;;;27.00;70.60;;;;;;5012119;28;20192;-76
2022/08/21 01:29:33;;;;;;;10.05;5.40;;;27.00;70.90;;;;;;5018044;28;20574;-75
2022/08/21 01:32:05;;;;;;;8.27;4.90;;;26.90;70.90;;;;;;5014382;28;20223;-75
2022/08/21 01:34:34;;;;;;;9.20;5.38;;;26.80;71.50;;;;;;5012437;28;20575;-75
2022/08/21 01:37:05;;;;;;;10.23;5.55;;;26.90;71.60;;;;;;5011158;28;20821;-75
2022/08/21 01:39:34;;;;;;;11.73;5.32;;;26.80;72.10;;;;;;5013156;28;20802;-76
2022/08/21 01:42:03;;;;;;;8.90;5.80;;;26.70;72.40;;;;;;5015651;28;20188;-76
2022/08/21 01:44:32;;;;;;;11.77;4.93;;;26.70;72.60;;;;;;5016933;28;20195;-76
2022/08/21 01:47:02;;;;;;;12.63;6.00;;;26.70;72.50;;;;;;5017511;28;20287;-76
2022/08/21 01:49:30;;;;;;;8.65;5.25;;;26.70;72.70;;;;;;5014620;28;20199;-76
2022/08/21 01:51:59;;;;;;;8.55;5.32;;;26.60;73.10;;;;;;5012419;28;20196;-75
2022/08/21 01:54:29;;;;;;;8.63;5.28;;;26.60;73.80;;;;;;5019417;28;20363;-75
2022/08/21 01:56:59;;;;;;;10.32;5.85;;;26.60;74.30;;;;;;5012516;28;20239;-76
2022/08/21 01:59:28;;;;;;;11.45;6.03;;;26.50;74.30;;;;;;5018074;28;20347;-76
2022/08/21 02:01:56;;;;;;;10.32;5.35;;;26.50;74.50;;;;;;5016335;28;20196;-75
2022/08/21 02:04:25;;;;;;;10.02;6.28;;;26.50;74.70;;;;;;5016990;28;20203;-76
2022/08/21 02:06:53;;;;;;;9.55;5.85;;;26.40;74.80;;;;;;5008100;28;20185;-75
2022/08/21 02:09:22;;;;;;;10.25;6.18;;;26.40;74.90;;;;;;5009643;28;20599;-76
2022/08/21 02:11:53;;;;;;;9.02;6.13;;;26.40;74.90;;;;;;5013051;28;20231;-75
2022/08/21 02:14:22;;;;;;;8.73;5.90;;;26.40;75.00;;;;;;5014514;28;20223;-76
2022/08/21 02:17:00;;;;;;;10.75;5.47;;;26.40;75.20;;;;;;5013366;28;20219;-75
2022/08/21 02:19:37;;;;;;;8.00;5.32;;;26.40;75.10;;;;;;5021867;28;20199;-75
2022/08/21 02:22:09;;;;;;;11.38;6.05;;;26.40;75.10;;;;;;5014251;28;20196;-75
2022/08/21 02:24:37;;;;;;;9.48;5.85;;;26.40;75.30;;;;;;5014010;28;20192;-76
2022/08/21 02:27:24;;;;;;;9.52;5.50;;;26.40;75.40;;;;;;5013029;28;20204;-76
2022/08/21 02:29:56;;;;;;;12.50;6.30;;;26.30;75.40;;;;;;5017593;28;20435;-75
2022/08/21 02:32:25;;;;;;;9.40;5.45;;;26.40;76.70;;;;;;5017606;28;20192;-75
2022/08/21 02:34:54;;;;;;;7.80;5.50;;;26.30;76.30;;;;;;5015522;28;20196;-75
2022/08/21 02:37:23;;;;;;;14.43;6.32;;;26.30;76.60;;;;;;5014346;28;20221;-76
2022/08/21 02:39:52;;;;;;;11.25;6.63;;;26.30;76.50;;;;;;5012912;28;20192;-75
2022/08/21 02:42:21;;;;;;;12.52;6.18;;;26.30;76.50;;;;;;5014633;28;20196;-75
2022/08/21 02:44:51;;;;;;;12.50;5.85;;;26.30;76.60;;;;;;5011737;28;20198;-75
2022/08/21 02:47:19;;;;;;;9.82;5.80;;;26.30;76.70;;;;;;5015750;28;20206;-75
2022/08/21 02:49:47;;;;;;;9.38;5.88;;;26.30;76.80;;;;;;5015852;28;20196;-76
2022/08/21 02:52:16;;;;;;;12.00;6.95;;;26.20;76.70;;;;;;5013098;28;20203;-76
2022/08/21 02:54:44;;;;;;;10.35;5.88;;;26.20;76.80;;;;;;5010824;28;20287;-76
2022/08/21 02:57:13;;;;;;;10.20;6.97;;;26.20;76.90;;;;;;5011912;28;20227;-75
2022/08/21 02:59:42;;;;;;;14.30;6.15;;;26.20;77.10;;;;;;5012554;28;20203;-75
2022/08/21 03:02:12;;;;;;;10.30;6.32;;;26.20;77.90;;;;;;5013257;28;20196;-75
2022/08/21 03:04:40;;;;;;;10.15;5.65;;;26.20;77.20;;;;;;5014382;28;20200;-77
2022/08/21 03:07:15;;;;;;;10.05;6.50;;;26.10;77.40;;;;;;5014964;28;20280;-75
2022/08/21 03:09:43;;;;;;;12.93;6.43;;;26.10;77.50;;;;;;5014846;28;20590;-75
2022/08/21 03:12:23;;;;;;;12.65;6.65;;;26.10;77.60;;;;;;5014798;28;20199;-75
2022/08/21 03:14:53;;;;;;;12.00;6.13;;;26.10;77.60;;;;;;5016870;28;20187;-75
2022/08/21 03:17:23;;;;;;;10.32;6.07;;;26.10;77.60;;;;;;5018153;28;20231;-76
2022/08/21 03:19:57;;;;;;;13.38;6.50;;;26.10;77.70;;;;;;5019763;28;20291;-75
2022/08/21 03:22:26;;;;;;;11.85;6.22;;;26.00;77.80;;;;;;5019056;28;20188;-75
2022/08/21 03:24:56;;;;;;;12.02;6.38;;;26.00;77.80;;;;;;5015864;28;20230;-75
2022/08/21 03:27:26;;;;;;;11.07;6.15;;;26.00;78.10;;;;;;5015765;28;20197;-76
2022/08/21 03:29:56;;;;;;;11.00;6.78;;;26.00;78.20;;;;;;5018208;28;20665;-75
2022/08/21 03:32:28;;;;;;;10.75;6.35;;;26.00;78.30;;;;;;5020181;28;20195;-75
2022/08/21 03:34:57;;;;;;;9.23;6.05;;;25.90;78.30;;;;;;5015540;28;20254;-75
2022/08/21 03:37:25;;;;;;;10.35;6.47;;;25.90;78.40;;;;;;5017708;28;20314;-75
2022/08/21 03:39:54;;;;;;;11.70;7.15;;;25.90;79.30;;;;;;5018208;28;20641;-76
2022/08/21 03:42:23;;;;;;;11.18;6.90;;;25.90;78.50;;;;;;5017180;28;20218;-75
2022/08/21 03:44:52;;;;;;;11.43;6.40;;;25.90;78.90;;;;;;5019388;28;20199;-76
2022/08/21 03:47:21;;;;;;;12.98;6.40;;;25.90;79.00;;;;;;5019255;28;20200;-75
2022/08/21 03:49:51;;;;;;;12.50;6.65;;;25.80;79.00;;;;;;5011829;28;20236;-75
2022/08/21 03:52:20;;;;;;;12.20;7.60;;;25.90;79.20;;;;;;5014759;28;21735;-75
2022/08/21 03:54:50;;;;;;;10.93;6.40;;;25.80;79.70;;;;;;5017607;28;20208;-76
2022/08/21 03:57:19;;;;;;;11.50;6.63;;;25.80;79.90;;;;;;5016010;28;20995;-76
2022/08/21 03:59:47;;;;;;;14.82;6.85;;;25.80;80.10;;;;;;5017986;28;20670;-75
2022/08/21 04:02:19;;;;;;;9.23;6.68;;;25.80;80.30;;;;;;5017162;28;20203;-77
2022/08/21 04:04:47;;;;;;;14.60;7.65;;;25.80;80.50;;;;;;5017760;28;20238;-75
2022/08/21 04:07:17;;;;;;;12.68;7.05;;;25.70;80.90;;;;;;5018989;28;20239;-75
2022/08/21 04:09:46;;;;;;;17.58;7.30;;;25.70;81.10;;;;;;5021870;28;20202;-76
2022/08/21 04:12:14;;;;;;;13.93;6.45;;;25.70;81.00;;;;;;5016360;28;21286;-75
2022/08/21 04:14:43;;;;;;;11.63;7.25;;;25.70;81.70;;;;;;5019110;28;20206;-75
2022/08/21 04:17:11;;;;;;;10.88;7.10;;;25.70;82.10;;;;;;5016409;28;20239;-75
2022/08/21 04:19:40;;;;;;;12.05;6.68;;;25.70;82.40;;;;;;5018219;28;20196;-75
2022/08/21 04:22:08;;;;;;;11.82;6.68;;;25.70;82.50;;;;;;5014962;28;20196;-75
2022/08/21 04:24:38;;;;;;;13.77;7.82;;;25.70;82.40;;;;;;5015320;28;20200;-75
2022/08/21 04:27:07;;;;;;;11.80;6.85;;;25.80;82.50;;;;;;5013004;28;20196;-75
2022/08/21 04:29:35;;;;;;;11.35;6.60;;;25.80;82.20;;;;;;5014022;28;20199;-75
2022/08/21 04:32:07;;;;;;;15.48;6.90;;;25.80;82.20;;;;;;5017170;28;20435;-75
2022/08/21 04:34:36;;;;;;;10.85;6.72;;;25.80;82.10;;;;;;5021197;28;20869;-75
2022/08/21 04:37:05;;;;;;;16.50;7.78;;;25.90;82.00;;;;;;5015521;28;20222;-75
2022/08/21 04:39:33;;;;;;;12.77;7.55;;;25.90;82.00;;;;;;5014856;28;20200;-75
2022/08/21 04:42:03;;;;;;;11.88;7.50;;;26.00;81.90;;;;;;5018175;28;20196;-76
2022/08/21 04:44:31;;;;;;;11.93;6.72;;;26.00;82.10;;;;;;5012392;28;20192;-75
2022/08/21 04:47:01;;;;;;;14.27;7.47;;;26.10;82.20;;;;;;5021733;28;20712;-75
2022/08/21 04:49:30;;;;;;;12.80;6.90;;;26.10;82.20;;;;;;5019915;28;20298;-75
2022/08/21 04:51:59;;;;;;;10.57;6.85;;;26.10;82.00;;;;;;5011915;28;20209;-75
2022/08/21 04:54:28;;;;;;;9.80;6.53;;;26.10;82.70;;;;;;5020582;28;20219;-75
2022/08/21 04:57:03;;;;;;;18.45;7.50;;;26.20;81.90;;;;;;5017677;28;20234;-77
2022/08/21 04:59:37;;;;;;;14.65;7.38;;;26.30;81.80;;;;;;5018051;28;20184;-75
2022/08/21 05:02:07;;;;;;;9.05;6.82;;;26.30;81.70;;;;;;5011082;28;20195;-76
2022/08/21 05:04:39;;;;;;;10.30;7.10;;;26.30;81.60;;;;;;5012837;28;20868;-75
2022/08/21 05:07:13;;;;;;;11.63;7.03;;;26.40;81.70;;;;;;5013329;28;20853;-76
2022/08/21 05:09:43;;;;;;;12.60;6.53;;;26.40;81.60;;;;;;5015608;28;20226;-77
2022/08/21 05:12:13;;;;;;;9.80;6.57;;;26.50;81.50;;;;;;5013622;28;20200;-76
2022/08/21 05:14:43;;;;;;;10.75;6.50;;;26.50;81.50;;;;;;5012679;28;20203;-75
2022/08/21 05:17:13;;;;;;;14.68;6.88;;;26.50;81.40;;;;;;5010244;28;20219;-75
2022/08/21 05:19:41;;;;;;;11.30;6.90;;;26.60;81.20;;;;;;5016899;28;20192;-75
2022/08/21 05:22:10;;;;;;;8.02;5.38;;;26.60;81.10;;;;;;5016571;28;20227;-76
2022/08/21 05:24:38;;;;;;;9.20;5.30;;;26.70;81.00;;;;;;5018425;28;20195;-75
2022/08/21 05:27:07;;;;;;;11.02;5.57;;;26.70;80.80;;;;;;5021797;28;20196;-75
2022/08/21 05:29:35;;;;;;;9.52;6.57;;;26.70;80.60;;;;;;5019047;28;20202;-76
2022/08/21 05:32:12;;;;;;;7.97;5.75;;;26.80;80.60;;;;;;5015912;28;20646;-76
2022/08/21 05:34:40;;;;;;;11.27;6.50;;;26.80;80.50;;;;;;5016279;28;20822;-76
2022/08/21 05:37:12;;;;;;;10.63;5.60;;;26.80;80.30;;;;;;5017709;28;20193;-75
2022/08/21 05:39:41;;;;;;;8.80;6.05;;;26.90;80.10;;;;;;5014656;28;20203;-76
2022/08/21 05:42:30;;;;;;;9.02;5.60;;;26.90;80.00;;;;;;5018062;28;20192;-77
2022/08/21 05:45:05;;;;;;;14.18;6.10;;;27.00;80.10;;;;;;5014401;28;20188;-76
2022/08/21 05:47:34;;;;;;;9.85;6.10;;;26.90;80.00;;;;;;5014343;28;20198;-76
2022/08/21 05:50:04;;;;;;;8.75;5.70;;;27.00;79.90;;;;;;5016886;28;20187;-76
2022/08/21 05:52:34;;;;;;;8.30;5.53;;;27.10;79.90;;;;;;5018124;28;20261;-76
2022/08/21 05:55:05;;;;;;;10.02;5.43;;;27.10;79.60;;;;;;5014876;28;20203;-77
2022/08/21 05:57:34;;;;;;;11.48;5.55;;;27.10;79.50;;;;;;5014158;28;21365;-76
2022/08/21 06:00:02;;;;;;;11.98;6.00;;;27.20;79.40;;;;;;5016331;28;20203;-78
2022/08/21 06:02:32;;;;;;;7.60;5.07;;;27.20;79.10;;;;;;5016993;28;20287;-75
2022/08/21 06:05:05;;;;;;;13.95;5.90;;;27.30;78.90;;;;;;5009343;28;20839;-76
2022/08/21 06:07:36;;;;;;;11.73;5.95;;;27.30;78.80;;;;;;5019125;28;20261;-76
2022/08/21 06:10:05;;;;;;;11.68;6.13;;;27.40;78.80;;;;;;5015580;28;20200;-76
2022/08/21 06:12:38;;;;;;;11.75;5.68;;;27.40;78.60;;;;;;5020644;28;20200;-76
2022/08/21 06:15:10;;;;;;;7.05;5.00;;;27.50;78.60;;;;;;5012460;28;20223;-76
2022/08/21 06:17:38;;;;;;;9.50;5.43;;;27.50;78.50;;;;;;5013077;28;20219;-76
2022/08/21 06:20:09;;;;;;;8.23;5.63;;;27.60;78.60;;;;;;5016549;28;20203;-76
2022/08/21 06:22:38;;;;;;;12.25;5.85;;;27.60;78.40;;;;;;5017616;28;20258;-76
2022/08/21 06:25:07;;;;;;;7.43;4.95;;;27.70;78.40;;;;;;5016750;28;20203;-75
2022/08/21 06:27:36;;;;;;;9.60;5.05;;;27.70;78.20;;;;;;5014709;28;20649;-76
2022/08/21 06:30:07;;;;;;;8.00;5.72;;;27.80;77.90;;;;;;5019414;28;20477;-77
2022/08/21 06:32:36;;;;;;;8.70;5.53;;;27.90;77.80;;;;;;5017635;28;20198;-76
2022/08/21 06:35:08;;;;;;;10.32;5.45;;;27.90;77.60;;;;;;5018615;28;20803;-76
2022/08/21 06:37:36;;;;;;;9.73;5.50;;;28.00;77.50;;;;;;5009566;28;20569;-77
2022/08/21 06:40:06;;;;;;;8.43;5.35;;;28.10;77.20;;;;;;5017245;28;20200;-77
2022/08/21 06:42:40;;;;;;;9.00;4.75;;;28.20;77.30;;;;;;5010991;28;20286;-77
2022/08/21 06:45:10;;;;;;;7.75;5.22;;;28.20;77.10;;;;;;5019567;28;20792;-77
2022/08/21 06:47:39;;;;;;;7.15;4.72;;;28.30;77.70;;;;;;5019158;28;20805;-77
2022/08/21 06:50:11;;;;;;;9.02;4.97;;;28.40;76.80;;;;;;5020334;28;20207;-77
2022/08/21 06:52:40;;;;;;;12.65;5.28;;;28.50;76.60;;;;;;5016805;28;20202;-75
2022/08/21 06:55:10;;;;;;;10.25;5.40;;;28.50;76.20;;;;;;5020306;28;20195;-76
2022/08/21 06:57:48;;;;;;;7.35;4.78;;;28.60;75.70;;;;;;5022842;28;20255;-76
2022/08/21 07:00:21;;;;;;;6.97;4.93;;;28.60;75.40;;;;;;5016454;28;20304;-76
2022/08/21 07:02:49;;;;;;;10.20;4.80;;;28.70;75.00;;;;;;5017287;28;20204;-76
2022/08/21 07:05:19;;;;;;;9.65;5.05;;;28.80;74.60;;;;;;5023836;28;20199;-78
2022/08/21 07:07:47;;;;;;;7.05;4.90;;;28.80;74.30;;;;;;5021135;28;20641;-79
2022/08/21 07:10:17;;;;;;;10.40;4.10;;;28.90;74.20;;;;;;5018701;28;20200;-81
2022/08/21 07:12:49;;;;;;;7.63;4.05;;;28.90;73.90;;;;;;5021863;28;20668;-79
2022/08/21 07:15:28;;;;;;;9.05;4.60;;;28.90;73.50;;;;;;5018756;28;20187;-79
2022/08/21 07:17:58;;;;;;;8.48;5.00;;;29.00;73.50;;;;;;5016882;28;20200;-77
2022/08/21 07:20:29;;;;;;;14.95;4.90;;;29.10;73.40;;;;;;5010050;28;20847;-78
2022/08/21 07:22:59;;;;;;;5.80;4.03;;;29.10;73.20;;;;;;5019504;28;20215;-78
2022/08/21 07:25:28;;;;;;;5.72;4.05;;;29.20;72.80;;;;;;5022264;28;20644;-79
2022/08/21 07:27:56;;;;;;;9.60;4.28;;;29.20;72.60;;;;;;5012457;28;20196;-78
2022/08/21 07:30:25;;;;;;;8.55;4.60;;;29.30;72.40;;;;;;5012586;28;20203;-78
2022/08/21 07:32:54;;;;;;;5.95;4.40;;;29.30;71.90;;;;;;5018150;28;20238;-80
2022/08/21 07:35:24;;;;;;;11.98;4.28;;;29.40;72.10;;;;;;5023629;28;20226;-79
2022/08/21 07:37:54;;;;;;;11.98;4.80;;;29.50;72.10;;;;;;5019336;28;20222;-81
2022/08/21 07:40:23;;;;;;;7.95;4.32;;;29.50;71.80;;;;;;5011546;28;20197;-78
2022/08/21 07:42:51;;;;;;;10.43;4.70;;;29.60;71.80;;;;;;5012244;28;20211;-78
2022/08/21 07:45:24;;;;;;;9.95;4.85;;;29.70;71.50;;;;;;5018915;28;20761;-79
2022/08/21 07:47:52;;;;;;;7.28;4.30;;;29.80;71.30;;;;;;5019112;28;20194;-80
2022/08/21 07:50:25;;;;;;;7.55;3.85;;;29.80;71.10;;;;;;5016841;28;20202;-80
2022/08/21 07:52:55;;;;;;;11.18;4.30;;;29.90;71.00;;;;;;5019985;28;20198;-79
2022/08/21 07:55:24;;;;;;;7.22;3.80;;;29.90;70.60;;;;;;5018700;28;20249;-79
2022/08/21 07:57:53;;;;;;;8.45;4.28;;;30.00;70.40;;;;;;5016596;28;20250;-80
2022/08/21 08:00:28;;;;;;;7.45;4.70;;;30.00;69.80;;;;;;5022433;28;20767;-81
2022/08/21 08:02:57;;;;;;;9.68;4.53;;;30.10;69.70;;;;;;5020003;28;20190;-79
2022/08/21 08:05:29;;;;;;;6.32;4.00;;;30.10;69.30;;;;;;5023166;28;20200;-79
2022/08/21 08:07:59;;;;;;;6.97;4.00;;;30.20;68.70;;;;;;5022526;28;20195;-81
2022/08/21 08:10:28;;;;;;;5.53;4.20;;;30.20;68.70;;;;;;5015868;28;20194;-81
2022/08/21 08:12:56;;;;;;;8.70;3.97;;;30.20;68.30;;;;;;5014921;28;20850;-83
2022/08/21 08:15:27;;;;;;;9.07;4.25;;;30.30;67.60;;;;;;5019746;28;20206;-80
2022/08/21 08:17:57;;;;;;;7.18;3.92;;;30.30;66.60;;;;;;5017026;28;20189;-81
2022/08/21 08:20:27;;;;;;;12.18;4.15;;;30.40;65.80;;;;;;5011503;28;20231;-81
2022/08/21 08:22:56;;;;;;;6.90;3.80;;;30.40;65.80;;;;;;5018229;28;20203;-80
2022/08/21 08:25:27;;;;;;;6.65;3.85;;;30.40;66.20;;;;;;5016615;28;20194;-79
2022/08/21 08:28:05;;;;;;;12.40;4.20;;;30.50;66.10;;;;;;5016267;28;20223;-81
2022/08/21 08:30:45;;;;;;;8.30;4.18;;;30.50;66.10;;;;;;5013156;28;21655;-80
2022/08/21 08:33:15;;;;;;;8.00;3.95;;;30.60;66.10;;;;;;5017847;28;20192;-80
2022/08/21 08:35:46;;;;;;;8.45;3.53;;;30.70;66.00;;;;;;5016759;28;20192;-79
2022/08/21 08:38:18;;;;;;;6.47;3.38;;;30.80;65.50;;;;;;5021871;28;20195;-82
2022/08/21 08:40:59;;;;;;;7.18;3.78;;;30.80;63.60;;;;;;5016041;28;20211;-81
2022/08/21 08:43:29;;;;;;;5.75;3.28;;;30.80;63.20;;;;;;5019658;28;20668;-78
2022/08/21 08:46:00;;;;;;;7.25;3.22;;;30.90;63.00;;;;;;5017340;28;20192;-80
2022/08/21 08:48:46;;;;;;;7.72;3.53;;;30.90;63.00;;;;;;5017810;28;20208;-80
2022/08/21 08:51:26;;;;;;;7.90;3.25;;;31.00;62.50;;;;;;5018690;28;20204;-82
2022/08/21 08:54:04;;;;;;;7.85;3.30;;;31.10;62.50;;;;;;5018583;28;20600;-79
2022/08/21 08:56:36;;;;;;;7.28;3.55;;;31.10;62.20;;;;;;5016864;28;20207;-80
2022/08/21 08:59:11;;;;;;;8.35;3.80;;;31.20;61.10;;;;;;5021124;28;20250;-82
2022/08/21 09:01:39;;;;;;;12.52;3.92;;;31.20;60.80;;;;;;5022765;28;20191;-80
2022/08/21 09:04:08;;;;;;;6.97;3.88;;;31.20;60.60;;;;;;5013759;28;20200;-78
2022/08/21 09:06:51;;;;;;;5.90;3.63;;;31.30;60.70;;;;;;5021181;28;20195;-82
2022/08/21 09:09:31;;;;;;;10.15;3.55;;;31.30;60.60;;;;;;5015318;28;20400;-80
2022/08/21 09:12:10;;;;;;;7.40;3.03;;;31.40;60.20;;;;;;5013646;28;21011;-82
2022/08/21 09:14:52;;;;;;;6.00;3.20;;;31.50;60.10;;;;;;5017341;28;20192;-81
2022/08/21 09:17:37;;;;;;;5.85;3.20;;;31.50;59.50;;;;;;5018069;28;20198;-81
2022/08/21 09:20:17;;;;;;;12.73;3.88;;;31.50;59.70;;;;;;5014198;28;20720;-81
2022/08/21 09:22:58;;;;;;;10.68;3.58;;;31.60;59.70;;;;;;5022177;28;20195;-82
2022/08/21 09:25:32;;;;;;;9.63;3.30;;;31.50;59.50;;;;;;5022486;28;20199;-81
2022/08/21 09:28:02;;;;;;;7.40;3.13;;;31.60;59.70;;;;;;5020683;28;20826;-81
2022/08/21 09:30:32;;;;;;;8.10;3.03;;;31.60;59.50;;;;;;5011849;28;20195;-80
2022/08/21 09:33:01;;;;;;;12.75;3.95;;;31.70;59.20;;;;;;5019109;28;20203;-80
2022/08/21 09:35:32;;;;;;;7.65;3.53;;;31.80;58.90;;;;;;5016883;28;20200;-81
2022/08/21 09:38:06;;;;;;;7.47;3.85;;;31.80;58.80;;;;;;5017334;28;20187;-83
2022/08/21 09:40:39;;;;;;;7.70;3.60;;;31.80;58.10;;;;;;5018768;28;20556;-82
2022/08/21 09:43:21;;;;;;;7.25;3.20;;;31.90;58.40;;;;;;5021768;28;20596;-81
2022/08/21 09:46:01;;;;;;;7.60;3.35;;;31.90;58.20;;;;;;5016670;28;20184;-80
2022/08/21 09:48:30;;;;;;;8.45;4.10;;;32.00;58.50;;;;;;5020048;28;20618;-81
2022/08/21 09:51:10;;;;;;;10.38;3.95;;;32.00;57.90;;;;;;5021778;28;20195;-81
2022/08/21 09:53:43;;;;;;;7.03;3.30;;;32.00;57.50;;;;;;5020204;28;20195;-83
2022/08/21 09:59:20;;;;;;;6.40;3.30;;;32.00;58.10;;;;;;5018444;28;20192;-80
2022/08/21 10:01:51;;;;;;;7.40;3.25;;;32.00;58.10;;;;;;5015757;28;20700;-80
2022/08/21 10:04:26;;;;;;;8.63;3.75;;;32.10;57.40;;;;;;5019325;28;20206;-82
2022/08/21 10:06:54;;;;;;;7.13;3.30;;;32.00;57.10;;;;;;5015452;28;20207;-78
2022/08/21 10:09:25;;;;;;;6.78;3.30;;;32.00;55.90;;;;;;5014565;28;20200;-82
2022/08/21 10:12:08;;;;;;;7.53;3.03;;;32.00;56.10;;;;;;5016064;28;20196;-81
2022/08/21 10:14:53;;;;;;;5.72;3.55;;;32.00;56.50;;;;;;5017024;28;20858;-80
2022/08/21 10:17:28;;;;;;;7.80;4.18;;;32.00;56.90;;;;;;5018082;28;20862;-79
2022/08/21 10:20:06;;;;;;;7.72;3.58;;;32.00;56.60;;;;;;5021768;28;20594;-81
2022/08/21 10:22:50;;;;;;;7.18;3.45;;;32.00;56.20;;;;;;5019356;28;20671;-80
2022/08/21 10:25:32;;;;;;;7.03;3.58;;;32.00;56.40;;;;;;5014265;28;20207;-80
2022/08/21 10:28:07;;;;;;;8.60;3.33;;;31.90;56.60;;;;;;5019854;28;20188;-82
2022/08/21 10:30:50;;;;;;;7.45;3.30;;;31.90;56.30;;;;;;5017666;28;20191;-80
2022/08/21 10:33:29;;;;;;;6.68;3.03;;;31.90;56.30;;;;;;5015164;28;20196;-79
2022/08/21 10:36:06;;;;;;;7.82;3.08;;;32.00;56.30;;;;;;5015612;28;20198;-80
2022/08/21 10:38:56;;;;;;;8.30;3.20;;;32.00;56.20;;;;;;5024145;28;20187;-80
2022/08/21 10:42:04;;;;;;;7.05;3.22;;;32.10;56.60;;;;;;5025369;28;20439;-80
2022/08/21 10:44:44;;;;;;;7.22;3.17;;;32.10;56.10;;;;;;5023489;28;20223;-80
2022/08/21 10:47:21;;;;;;;9.95;5.25;;;32.10;56.30;;;;;;5020991;28;20207;-81
2022/08/21 10:49:59;;;;;;;15.20;5.63;;;32.10;56.30;;;;;;5019662;28;20203;-78
2022/08/21 10:52:50;;;;;;;6.07;3.75;;;32.10;56.30;;;;;;5020263;28;20200;-79
2022/08/21 10:55:22;;;;;;;5.30;3.60;;;32.10;56.10;;;;;;5021409;28;20242;-79
2022/08/21 10:57:55;;;;;;;5.38;3.28;;;32.10;56.30;;;;;;5012046;28;20227;-80
2022/08/21 11:00:27;;;;;;;11.13;3.67;;;32.00;56.40;;;;;;5009773;28;20822;-80
2022/08/21 11:03:02;;;;;;;6.55;3.35;;;32.00;56.20;;;;;;5017760;28;20250;-79
2022/08/21 11:05:33;;;;;;;12.95;3.92;;;32.00;56.00;;;;;;5018957;28;20251;-82
2022/08/21 11:08:09;;;;;;;17.15;4.30;;;32.10;55.70;;;;;;5019312;28;20192;-78
2022/08/21 11:10:43;;;;;;;7.85;3.40;;;32.10;55.90;;;;;;5019830;28;20200;-80
2022/08/21 11:13:35;;;;;;;6.13;3.53;;;32.20;55.50;;;;;;5022985;28;20191;-77
2022/08/21 11:16:10;;;;;;;8.15;3.78;;;32.20;55.70;;;;;;5022073;28;20192;-79
2022/08/21 11:18:44;;;;;;;7.32;3.60;;;32.20;55.00;;;;;;5020847;28;20576;-80
2022/08/21 11:21:28;;;;;;;4.95;3.30;;;32.10;54.90;;;;;;5019023;28;20834;-80
2022/08/21 11:24:04;;;;;;;6.20;3.15;;;32.10;55.10;;;;;;5022969;28;20303;-80
2022/08/21 11:26:40;;;;;;;9.23;4.10;;;32.10;55.00;;;;;;5011787;28;20191;-81
2022/08/21 11:29:17;;;;;;;12.73;7.45;;;32.00;54.70;;;;;;5024386;28;20187;-79
2022/08/21 11:32:01;;;;;;;8.38;4.28;;;32.00;54.50;;;;;;5020725;28;20183;-81
2022/08/21 11:34:48;;;;;;;12.70;5.50;;;32.00;54.80;;;;;;5011998;28;20213;-80
2022/08/21 11:37:23;;;;;;;8.57;4.13;;;32.00;55.10;;;;;;5018823;28;20271;-80
2022/08/21 11:40:04;;;;;;;10.57;5.20;;;32.00;55.20;;;;;;5018406;28;20202;-81
2022/08/21 11:42:41;;;;;;;11.05;3.90;;;32.00;55.20;;;;;;5020827;28;20567;-83
2022/08/21 11:45:22;;;;;;;9.90;3.47;;;32.00;55.20;;;;;;5019853;28;20180;-81
2022/08/21 11:48:03;;;;;;;5.22;3.30;;;31.90;55.10;;;;;;5020217;28;20180;-80
2022/08/21 11:50:36;;;;;;;6.72;4.07;;;31.90;55.20;;;;;;5014547;28;20199;-80
2022/08/21 11:53:11;;;;;;;12.35;6.65;;;31.90;55.20;;;;;;5020191;28;20638;-80
2022/08/21 11:55:45;;;;;;;9.57;5.55;;;31.90;55.30;;;;;;5018628;28;20198;-81
2022/08/21 11:58:20;;;;;;;10.25;4.00;;;31.90;55.40;;;;;;5019758;28;20219;-80
2022/08/21 12:00:53;;;;;;;7.68;3.35;;;31.80;55.50;;;;;;5014517;28;20298;-82
2022/08/21 12:03:28;;;;;;;9.35;3.10;;;31.80;55.30;;;;;;5014755;28;20650;-82
2022/08/21 12:06:03;;;;;;;7.13;2.95;;;31.80;54.80;;;;;;5018065;28;20188;-80
2022/08/21 12:08:34;;;;;;;9.90;3.28;;;31.80;54.80;;;;;;5017617;28;20195;-80
2022/08/21 12:11:07;;;;;;;4.25;3.10;;;31.80;54.90;;;;;;5015148;28;20238;-80
2022/08/21 12:13:39;;;;;;;7.22;3.58;;;31.90;55.00;;;;;;5011878;28;20212;-80
2022/08/21 12:16:13;;;;;;;6.05;3.00;;;31.90;55.00;;;;;;5020406;28;20245;-80
2022/08/21 12:18:44;;;;;;;5.20;2.97;;;31.90;55.00;;;;;;5010195;28;20184;-81
2022/08/21 12:21:24;;;;;;;7.28;3.22;;;31.90;55.10;;;;;;5015820;28;20759;-79
2022/08/21 12:24:03;;;;;;;4.60;2.85;;;31.90;55.00;;;;;;5011832;28;20188;-80
2022/08/21 12:26:34;;;;;;;6.50;3.30;;;31.90;55.20;;;;;;5015381;28;20291;-80
2022/08/21 12:29:15;;;;;;;6.60;3.38;;;31.90;55.30;;;;;;5012428;28;20188;-81
2022/08/21 12:31:59;;;;;;;9.10;4.90;;;31.90;55.30;;;;;;5017011;28;20591;-82
2022/08/21 12:34:43;;;;;;;6.70;4.38;;;31.90;55.30;;;;;;5012158;28;20354;-80
2022/08/21 12:37:21;;;;;;;11.63;3.97;;;31.90;55.20;;;;;;5023468;28;20192;-79
2022/08/21 12:39:54;;;;;;;6.50;3.80;;;31.90;55.20;;;;;;5016168;28;20202;-79
2022/08/21 12:42:29;;;;;;;10.82;3.42;;;31.90;55.40;;;;;;5019725;28;20734;-79
2022/08/21 12:45:03;;;;;;;7.47;3.33;;;32.00;55.70;;;;;;5013632;28;20196;-78
2022/08/21 12:47:35;;;;;;;6.18;3.08;;;31.90;55.70;;;;;;5012882;28;20188;-78
2022/08/21 12:50:08;;;;;;;6.82;3.00;;;31.90;55.70;;;;;;5019833;28;20184;-78
2022/08/21 12:52:42;;;;;;;7.93;3.47;;;31.90;55.70;;;;;;5020744;28;20196;-78
2022/08/21 12:55:15;;;;;;;9.30;3.28;;;31.90;55.80;;;;;;5017188;28;20184;-79
2022/08/21 12:57:44;;;;;;;5.53;3.33;;;31.90;55.70;;;;;;5020413;28;20220;-78
2022/08/21 13:00:21;;;;;;;6.50;3.38;;;31.90;55.80;;;;;;5020065;28;20192;-78
2022/08/21 13:02:52;;;;;;;7.18;3.53;;;31.90;55.80;;;;;;5018678;28;20216;-79
2022/08/21 13:05:29;;;;;;;10.75;4.45;;;31.90;55.90;;;;;;5014205;28;20239;-80
2022/08/21 13:08:00;;;;;;;8.73;4.57;;;31.90;56.00;;;;;;5019048;28;20223;-79
2022/08/21 13:10:31;;;;;;;9.20;4.88;;;31.90;56.00;;;;;;5020770;28;20188;-78
2022/08/21 13:13:04;;;;;;;12.02;4.85;;;32.00;56.00;;;;;;5014935;28;20554;-78